Time;durP1;ratioP1;P1;durP2;ratioP2;P2;SDS_P1;SDS_P2;PMS_P1;PMS_P2;Temp;Humidity;BMP_temperature;BMP_pressure;BME280_temperature;BME280_humidity;BME280_pressure;Samples;Min_cycle;Max_cycle;Signal;HPM_P1;HPM_P2
2023/09/02 00:00:27;;;;;;;6.37;4.63;;;23.70;58.90;;;;;;5053550;28;20179;-70
2023/09/02 00:02:52;;;;;;;4.20;3.80;;;23.70;58.80;;;;;;5053803;28;20269;-70
2023/09/02 00:05:18;;;;;;;4.23;3.73;;;23.70;58.90;;;;;;5035633;28;20591;-70
2023/09/02 00:07:44;;;;;;;6.57;4.40;;;23.70;58.80;;;;;;5053301;28;20206;-70
2023/09/02 00:10:09;;;;;;;4.23;3.83;;;23.70;58.90;;;;;;5053240;28;20178;-70
2023/09/02 00:12:35;;;;;;;3.93;3.60;;;23.70;58.80;;;;;;5053410;28;20171;-70
2023/09/02 00:15:01;;;;;;;4.00;3.53;;;23.70;58.80;;;;;;5053310;28;20175;-70
2023/09/02 00:17:26;;;;;;;6.53;4.10;;;23.70;58.80;;;;;;5035254;28;20627;-71
2023/09/02 00:19:52;;;;;;;3.60;3.30;;;23.70;58.80;;;;;;5053261;28;20182;-71
2023/09/02 00:22:17;;;;;;;7.20;3.83;;;23.70;58.90;;;;;;5053117;28;20549;-70
2023/09/02 00:24:43;;;;;;;4.17;3.60;;;23.70;59.00;;;;;;5035234;28;20186;-71
2023/09/02 00:27:09;;;;;;;4.60;3.20;;;23.70;59.00;;;;;;5052739;28;20217;-70
2023/09/02 00:29:34;;;;;;;4.40;3.17;;;23.70;59.10;;;;;;5053127;28;20551;-70
2023/09/02 00:32:00;;;;;;;4.80;3.67;;;23.70;59.00;;;;;;5035060;28;20171;-71
2023/09/02 00:34:25;;;;;;;3.77;3.40;;;23.70;59.00;;;;;;5035051;28;20171;-70
2023/09/02 00:36:52;;;;;;;4.60;3.30;;;23.70;59.00;;;;;;5052863;28;20274;-70
2023/09/02 00:39:17;;;;;;;5.17;3.80;;;23.70;59.00;;;;;;5034828;28;20179;-71
2023/09/02 00:41:46;;;;;;;3.70;3.13;;;23.70;59.00;;;;;;5035026;28;20417;-70
2023/09/02 00:44:12;;;;;;;4.93;2.97;;;23.70;59.00;;;;;;5034831;28;20175;-71
2023/09/02 00:46:38;;;;;;;5.13;3.70;;;23.70;59.00;;;;;;5052673;28;20817;-70
2023/09/02 00:49:03;;;;;;;3.47;3.10;;;23.70;58.90;;;;;;5052698;28;20202;-71
2023/09/02 00:51:29;;;;;;;4.07;3.10;;;23.70;58.90;;;;;;5052676;28;20225;-71
2023/09/02 00:53:55;;;;;;;3.27;2.60;;;23.70;59.00;;;;;;5052663;28;20167;-70
2023/09/02 00:56:22;;;;;;;3.43;3.13;;;23.70;58.90;;;;;;5052463;28;20425;-70
2023/09/02 00:58:48;;;;;;;3.77;3.07;;;23.70;58.90;;;;;;5052522;28;20182;-70
2023/09/02 01:01:13;;;;;;;3.93;2.27;;;23.70;58.90;;;;;;5052447;28;20459;-70
2023/09/02 01:03:40;;;;;;;4.70;3.03;;;23.70;58.90;;;;;;5052672;28;20418;-71
2023/09/02 01:06:08;;;;;;;3.63;3.10;;;23.70;59.50;;;;;;5052311;28;20187;-71
2023/09/02 01:08:34;;;;;;;4.13;3.50;;;23.70;59.00;;;;;;5052256;28;20534;-71
2023/09/02 01:11:00;;;;;;;2.87;2.63;;;23.70;58.90;;;;;;5052275;28;20410;-71
2023/09/02 01:13:27;;;;;;;3.97;3.30;;;23.70;58.90;;;;;;5052267;28;20443;-71
2023/09/02 01:15:55;;;;;;;3.23;2.80;;;23.70;59.00;;;;;;5052116;28;20436;-70
2023/09/02 01:18:25;;;;;;;3.50;3.20;;;23.70;58.90;;;;;;5052385;28;20414;-70
2023/09/02 01:21:10;;;;;;;4.20;3.20;;;23.70;59.00;;;;;;5051212;28;20466;-70
2023/09/02 01:23:50;;;;;;;2.73;2.53;;;23.70;59.00;;;;;;5052396;28;20390;-71
2023/09/02 01:26:37;;;;;;;3.57;2.80;;;23.70;59.10;;;;;;5051831;28;20432;-70
2023/09/02 01:29:07;;;;;;;4.70;2.90;;;23.70;59.10;;;;;;5052128;28;20448;-71
2023/09/02 01:31:35;;;;;;;7.27;2.73;;;23.60;59.00;;;;;;5052032;28;20475;-70
2023/09/02 01:34:02;;;;;;;4.33;3.50;;;23.60;59.00;;;;;;5052050;28;20414;-71
2023/09/02 01:36:29;;;;;;;5.13;3.97;;;23.60;59.00;;;;;;5051712;28;20482;-70
2023/09/02 01:38:56;;;;;;;5.57;3.47;;;23.60;59.00;;;;;;5051723;28;20406;-70
2023/09/02 01:41:23;;;;;;;3.27;2.67;;;23.60;59.00;;;;;;5051709;28;20410;-71
2023/09/02 01:43:50;;;;;;;3.23;2.93;;;23.60;58.90;;;;;;5051697;28;20417;-70
2023/09/02 01:46:18;;;;;;;3.40;2.80;;;23.60;59.00;;;;;;5051505;28;20441;-70
2023/09/02 01:48:45;;;;;;;3.17;2.87;;;23.60;58.90;;;;;;5051753;28;20449;-70
2023/09/02 01:51:11;;;;;;;3.57;2.23;;;23.60;58.90;;;;;;5051515;28;20416;-71
2023/09/02 01:53:37;;;;;;;4.30;2.70;;;23.60;58.90;;;;;;5051758;28;21161;-70
2023/09/02 01:56:03;;;;;;;4.17;2.80;;;23.60;58.90;;;;;;5051333;28;20464;-71
2023/09/02 01:58:28;;;;;;;4.67;2.90;;;23.60;58.90;;;;;;5051368;28;20182;-70
2023/09/02 02:00:54;;;;;;;3.07;2.77;;;23.60;59.00;;;;;;5051956;28;20476;-71
2023/09/02 02:03:37;;;;;;;4.10;2.80;;;23.60;59.00;;;;;;5051304;28;20693;-70
2023/09/02 02:06:07;;;;;;;5.07;2.60;;;23.60;58.90;;;;;;5051235;28;20207;-70
2023/09/02 02:08:58;;;;;;;3.90;3.10;;;23.60;59.00;;;;;;5051146;28;20472;-71
2023/09/02 02:11:26;;;;;;;3.07;2.60;;;23.60;58.90;;;;;;5051173;28;20392;-70
2023/09/02 02:13:51;;;;;;;3.20;2.47;;;23.60;58.90;;;;;;5051216;28;20416;-70
2023/09/02 02:16:17;;;;;;;3.03;2.23;;;23.60;58.90;;;;;;5050978;28;20434;-70
2023/09/02 02:18:43;;;;;;;2.87;2.60;;;23.60;58.90;;;;;;5051129;28;20263;-71
2023/09/02 02:21:08;;;;;;;2.57;2.37;;;23.60;58.90;;;;;;5051055;28;20267;-71
2023/09/02 02:23:34;;;;;;;4.50;2.50;;;23.60;58.90;;;;;;5051298;28;20186;-70
2023/09/02 02:26:01;;;;;;;3.30;2.93;;;23.60;59.00;;;;;;5051123;28;20244;-70
2023/09/02 02:28:27;;;;;;;4.23;2.87;;;23.60;59.00;;;;;;5050782;28;20228;-71
2023/09/02 02:30:52;;;;;;;3.73;2.60;;;23.60;58.90;;;;;;5050926;28;20437;-70
2023/09/02 02:33:18;;;;;;;2.90;2.47;;;23.60;58.90;;;;;;5050791;28;20449;-70
2023/09/02 02:35:43;;;;;;;3.73;2.67;;;23.60;58.90;;;;;;5050870;28;20268;-70
2023/09/02 02:38:09;;;;;;;3.20;2.73;;;23.60;59.00;;;;;;5050907;28;20198;-71
2023/09/02 02:40:35;;;;;;;2.80;2.27;;;23.60;59.00;;;;;;5050906;28;20186;-70
2023/09/02 02:43:01;;;;;;;2.70;2.50;;;23.60;59.00;;;;;;5050841;28;20175;-70
2023/09/02 02:45:28;;;;;;;3.97;1.90;;;23.60;59.10;;;;;;5050661;28;20991;-70
2023/09/02 02:47:54;;;;;;;3.10;2.33;;;23.60;59.00;;;;;;5050950;28;20625;-70
2023/09/02 02:50:20;;;;;;;2.63;2.40;;;23.60;59.00;;;;;;5050843;28;20484;-70
2023/09/02 02:52:46;;;;;;;2.63;2.40;;;23.60;59.00;;;;;;5051027;28;20410;-71
2023/09/02 02:55:12;;;;;;;2.17;2.00;;;23.60;59.00;;;;;;5050688;28;20420;-71
2023/09/02 02:57:38;;;;;;;3.77;2.90;;;23.60;59.00;;;;;;5050615;28;20273;-70
2023/09/02 03:00:06;;;;;;;2.50;2.23;;;23.60;59.00;;;;;;5050678;28;20521;-71
2023/09/02 03:02:32;;;;;;;2.83;2.10;;;23.60;58.90;;;;;;5050720;28;20441;-70
2023/09/02 03:04:57;;;;;;;2.70;2.20;;;23.60;58.90;;;;;;5050689;28;20452;-70
2023/09/02 03:07:24;;;;;;;2.53;2.30;;;23.60;59.00;;;;;;5050490;28;20697;-71
2023/09/02 03:09:49;;;;;;;4.00;2.43;;;23.60;59.00;;;;;;5050592;28;20584;-70
2023/09/02 03:12:15;;;;;;;4.27;2.20;;;23.60;58.90;;;;;;5050606;28;20440;-71
2023/09/02 03:14:41;;;;;;;2.33;1.97;;;23.60;58.90;;;;;;5050776;28;20182;-70
2023/09/02 03:17:07;;;;;;;2.33;2.10;;;23.60;58.90;;;;;;5050394;28;20199;-71
2023/09/02 03:19:33;;;;;;;2.67;2.47;;;23.60;59.00;;;;;;5050417;28;20492;-71
2023/09/02 03:21:58;;;;;;;2.47;2.27;;;23.50;58.90;;;;;;5032524;28;20179;-70
2023/09/02 03:24:24;;;;;;;2.70;1.80;;;23.60;58.90;;;;;;5050390;28;20171;-70
2023/09/02 03:26:49;;;;;;;2.03;1.83;;;23.50;58.90;;;;;;5050414;28;20211;-70
2023/09/02 03:29:15;;;;;;;2.20;1.97;;;23.60;59.00;;;;;;5050306;28;20576;-70
2023/09/02 03:31:41;;;;;;;2.53;2.33;;;23.50;58.90;;;;;;5050479;28;20194;-71
2023/09/02 03:34:06;;;;;;;2.30;2.10;;;23.50;58.90;;;;;;5050340;28;20638;-70
2023/09/02 03:36:32;;;;;;;2.27;2.00;;;23.50;58.90;;;;;;5050233;28;20191;-70
2023/09/02 03:38:57;;;;;;;2.17;1.97;;;23.50;58.90;;;;;;5050341;28;20259;-71
2023/09/02 03:41:23;;;;;;;4.43;2.23;;;23.50;59.20;;;;;;5050519;28;20535;-70
2023/09/02 03:43:49;;;;;;;2.93;2.00;;;23.50;58.90;;;;;;5051289;28;20186;-71
2023/09/02 03:46:15;;;;;;;2.63;2.10;;;23.50;58.90;;;;;;5053803;28;20278;-71
2023/09/02 03:48:40;;;;;;;2.70;2.10;;;23.50;58.90;;;;;;5053830;28;20202;-70
2023/09/02 03:51:26;;;;;;;1.93;1.67;;;23.50;58.90;;;;;;5053775;28;20654;-70
2023/09/02 03:53:52;;;;;;;1.83;1.67;;;23.50;58.90;;;;;;5054099;28;20519;-71
2023/09/02 03:56:18;;;;;;;3.27;2.10;;;23.50;58.90;;;;;;5053933;28;20432;-71
2023/09/02 03:58:43;;;;;;;2.07;1.83;;;23.50;58.90;;;;;;5035757;28;20914;-70
2023/09/02 04:01:09;;;;;;;2.03;1.83;;;23.50;58.90;;;;;;5053651;28;20202;-71
2023/09/02 04:03:35;;;;;;;1.70;1.60;;;23.50;58.90;;;;;;5053632;28;20635;-70
2023/09/02 04:06:01;;;;;;;2.20;2.00;;;23.50;58.90;;;;;;5053716;28;20717;-70
2023/09/02 04:08:27;;;;;;;2.30;1.90;;;23.50;58.80;;;;;;5053396;28;20481;-71
2023/09/02 04:10:54;;;;;;;2.13;1.93;;;23.50;58.80;;;;;;5053463;28;20182;-71
2023/09/02 04:13:28;;;;;;;2.10;1.90;;;23.50;58.80;;;;;;5053705;28;20171;-70
2023/09/02 04:15:54;;;;;;;1.60;1.50;;;23.50;58.80;;;;;;5053563;28;20500;-70
2023/09/02 04:18:20;;;;;;;1.97;1.70;;;23.50;58.80;;;;;;5053599;28;20492;-70
2023/09/02 04:20:45;;;;;;;2.10;1.90;;;23.50;58.80;;;;;;5053527;28;20497;-71
2023/09/02 04:23:11;;;;;;;1.93;1.47;;;23.50;58.80;;;;;;5053257;28;20225;-71
2023/09/02 04:25:47;;;;;;;2.20;2.00;;;23.50;58.70;;;;;;5053158;28;20206;-71
2023/09/02 04:28:14;;;;;;;2.07;1.83;;;23.50;58.70;;;;;;5053021;28;20202;-69
2023/09/02 04:30:40;;;;;;;2.10;1.90;;;23.50;58.70;;;;;;5053347;28;20778;-71
2023/09/02 04:33:06;;;;;;;2.23;1.87;;;23.50;58.70;;;;;;5053052;28;20398;-71
2023/09/02 04:35:50;;;;;;;1.73;1.60;;;23.50;58.70;;;;;;5035000;28;20420;-70
2023/09/02 04:38:16;;;;;;;2.20;1.57;;;23.50;58.70;;;;;;5052941;28;20205;-70
2023/09/02 04:40:43;;;;;;;2.40;2.20;;;23.50;58.70;;;;;;5052828;28;20810;-70
2023/09/02 04:43:10;;;;;;;1.83;1.73;;;23.50;58.70;;;;;;5052851;28;20436;-70
2023/09/02 04:45:39;;;;;;;1.90;1.70;;;23.50;58.70;;;;;;5052714;28;20500;-70
2023/09/02 04:48:06;;;;;;;2.20;1.40;;;23.50;58.70;;;;;;5052803;28;20867;-70
2023/09/02 04:50:33;;;;;;;3.10;1.70;;;23.50;58.70;;;;;;5052703;28;20416;-70
2023/09/02 04:52:59;;;;;;;2.33;1.40;;;23.50;58.80;;;;;;5052694;28;20520;-70
2023/09/02 04:55:26;;;;;;;1.93;1.60;;;23.50;58.70;;;;;;5051370;28;20767;-71
2023/09/02 04:57:55;;;;;;;2.07;1.50;;;23.50;58.70;;;;;;5052552;28;20417;-70
2023/09/02 05:00:24;;;;;;;1.80;1.70;;;23.50;58.70;;;;;;5052529;28;20413;-71
2023/09/02 05:02:50;;;;;;;1.70;1.47;;;23.50;58.70;;;;;;5052500;28;20409;-71
2023/09/02 05:05:17;;;;;;;1.87;1.70;;;23.40;58.60;;;;;;5052671;28;20413;-70
2023/09/02 05:07:43;;;;;;;1.70;1.50;;;23.40;58.70;;;;;;5052210;28;20453;-70
2023/09/02 05:10:09;;;;;;;1.73;1.53;;;23.40;58.70;;;;;;5052320;28;20406;-71
2023/09/02 05:12:36;;;;;;;1.73;1.30;;;23.40;58.70;;;;;;5052402;28;20183;-70
2023/09/02 05:15:03;;;;;;;1.63;1.50;;;23.40;58.70;;;;;;5052317;28;21009;-71
2023/09/02 05:17:29;;;;;;;1.90;1.70;;;23.40;58.70;;;;;;5052074;28;20445;-70
2023/09/02 05:19:55;;;;;;;1.90;1.70;;;23.40;58.60;;;;;;5052208;28;20413;-70
2023/09/02 05:22:20;;;;;;;3.00;1.70;;;23.40;58.70;;;;;;5052069;28;20410;-70
2023/09/02 05:24:46;;;;;;;1.70;1.50;;;23.40;58.70;;;;;;5052089;28;20225;-71
2023/09/02 05:27:12;;;;;;;2.10;1.83;;;23.40;58.70;;;;;;5051750;28;20698;-70
2023/09/02 05:29:38;;;;;;;2.90;1.80;;;23.40;58.70;;;;;;5052012;28;20207;-71
2023/09/02 05:32:04;;;;;;;1.73;1.30;;;23.40;58.70;;;;;;5052216;28;20434;-70
2023/09/02 05:34:29;;;;;;;1.57;1.40;;;23.40;58.70;;;;;;5051947;28;20166;-69
2023/09/02 05:36:55;;;;;;;2.00;1.40;;;23.40;58.70;;;;;;5051803;28;20187;-70
2023/09/02 05:39:20;;;;;;;2.20;1.60;;;23.40;58.70;;;;;;5051801;28;20525;-71
2023/09/02 05:41:46;;;;;;;1.67;1.57;;;23.40;59.20;;;;;;5051763;28;20233;-70
2023/09/02 05:44:12;;;;;;;2.17;1.77;;;23.40;58.70;;;;;;5051749;28;20233;-70
2023/09/02 05:46:38;;;;;;;2.40;1.70;;;23.40;58.70;;;;;;5051566;28;20210;-70
2023/09/02 05:49:04;;;;;;;3.47;1.60;;;23.40;58.70;;;;;;5051547;28;20445;-70
2023/09/02 05:51:30;;;;;;;3.63;1.73;;;23.40;58.70;;;;;;5051482;28;20644;-71
2023/09/02 05:53:55;;;;;;;3.70;1.70;;;23.40;58.70;;;;;;5051567;28;20171;-71
2023/09/02 05:56:21;;;;;;;2.07;1.60;;;23.40;58.70;;;;;;5033546;28;20260;-70
2023/09/02 05:58:47;;;;;;;2.20;1.50;;;23.40;58.70;;;;;;5051463;28;20610;-69
2023/09/02 06:01:12;;;;;;;4.93;1.60;;;23.40;58.80;;;;;;5051393;28;20179;-70
2023/09/02 06:03:38;;;;;;;3.37;2.00;;;23.40;58.90;;;;;;5051338;28;20232;-71
2023/09/02 06:06:13;;;;;;;2.47;1.80;;;23.40;58.90;;;;;;5051042;28;20191;-70
2023/09/02 06:08:39;;;;;;;2.80;1.80;;;23.40;58.90;;;;;;5051177;28;20544;-70
2023/09/02 06:11:05;;;;;;;3.00;1.50;;;23.40;58.80;;;;;;5051306;28;20413;-69
2023/09/02 06:13:31;;;;;;;2.60;1.60;;;23.40;58.80;;;;;;5051498;28;20470;-70
2023/09/02 06:16:01;;;;;;;1.93;1.50;;;23.40;58.80;;;;;;5051061;28;20421;-70
2023/09/02 06:18:28;;;;;;;3.00;1.80;;;23.40;58.80;;;;;;5033222;28;20428;-70
2023/09/02 06:20:54;;;;;;;3.83;2.17;;;23.40;58.90;;;;;;5033231;28;20425;-69
2023/09/02 06:23:19;;;;;;;2.40;1.60;;;23.40;58.90;;;;;;5051076;28;20413;-70
2023/09/02 06:25:54;;;;;;;4.43;1.80;;;23.40;58.90;;;;;;5050873;28;20206;-70
2023/09/02 06:28:20;;;;;;;1.80;1.60;;;23.40;58.90;;;;;;5050933;28;20249;-70
2023/09/02 06:30:45;;;;;;;1.87;1.60;;;23.40;58.90;;;;;;5050916;28;20438;-70
2023/09/02 06:33:11;;;;;;;2.97;1.60;;;23.40;58.90;;;;;;5050966;28;20171;-70
2023/09/02 06:35:36;;;;;;;3.97;2.03;;;23.40;59.00;;;;;;5050747;28;20201;-71
2023/09/02 06:38:02;;;;;;;2.63;1.93;;;23.40;59.00;;;;;;5051225;28;20206;-70
2023/09/02 06:40:29;;;;;;;3.23;2.10;;;23.40;59.10;;;;;;5050861;28;20183;-69
2023/09/02 06:42:55;;;;;;;3.10;2.13;;;23.40;59.10;;;;;;5050754;28;20659;-70
2023/09/02 06:45:21;;;;;;;4.67;2.10;;;23.40;59.10;;;;;;5050067;28;20409;-71
2023/09/02 06:47:46;;;;;;;2.70;1.90;;;23.40;59.20;;;;;;5050225;28;20456;-70
2023/09/02 06:50:12;;;;;;;2.63;2.03;;;23.40;59.30;;;;;;5050770;28;20170;-70
2023/09/02 06:52:37;;;;;;;2.80;1.97;;;23.40;59.30;;;;;;5050824;28;20213;-70
2023/09/02 06:55:04;;;;;;;4.10;2.17;;;23.40;59.10;;;;;;5050949;28;20221;-71
2023/09/02 06:57:29;;;;;;;2.37;1.90;;;23.40;59.10;;;;;;5050737;28;20248;-70
2023/09/02 06:59:55;;;;;;;2.33;1.50;;;23.40;59.20;;;;;;5050787;28;20815;-70
2023/09/02 07:02:21;;;;;;;4.03;1.80;;;23.40;59.10;;;;;;5050608;28;20175;-71
2023/09/02 07:04:49;;;;;;;2.07;1.50;;;23.40;59.20;;;;;;5050633;28;20181;-70
2023/09/02 07:07:16;;;;;;;2.97;1.70;;;23.40;59.10;;;;;;5050441;28;20663;-70
2023/09/02 07:09:41;;;;;;;2.40;2.20;;;23.40;59.10;;;;;;5050552;28;20414;-70
2023/09/02 07:12:07;;;;;;;1.70;1.60;;;23.40;59.10;;;;;;5050647;28;20774;-69
2023/09/02 07:14:33;;;;;;;1.97;1.60;;;23.40;59.10;;;;;;5050529;28;20170;-70
2023/09/02 07:16:58;;;;;;;3.03;1.80;;;23.40;59.30;;;;;;5050437;28;20738;-70
2023/09/02 07:19:24;;;;;;;3.60;1.63;;;23.40;59.20;;;;;;5052552;28;20167;-70
2023/09/02 07:21:50;;;;;;;1.80;1.53;;;23.40;59.20;;;;;;5054408;28;20588;-70
2023/09/02 07:24:16;;;;;;;2.40;1.83;;;23.40;59.20;;;;;;5054667;28;20678;-70
2023/09/02 07:26:42;;;;;;;2.10;1.60;;;23.40;59.40;;;;;;5054127;28;20453;-70
2023/09/02 07:29:07;;;;;;;1.77;1.67;;;23.40;59.30;;;;;;5054232;28;20203;-70
2023/09/02 07:31:33;;;;;;;2.30;1.90;;;23.40;59.20;;;;;;5054206;28;20167;-70
2023/09/02 07:33:59;;;;;;;1.90;1.63;;;23.40;59.30;;;;;;5054218;28;20167;-70
2023/09/02 07:36:25;;;;;;;3.13;1.80;;;23.40;59.30;;;;;;5054030;28;20433;-69
2023/09/02 07:38:51;;;;;;;1.90;1.70;;;23.40;59.30;;;;;;5054103;28;20171;-69
2023/09/02 07:41:16;;;;;;;1.93;1.63;;;23.40;59.30;;;;;;5054316;28;20186;-70
2023/09/02 07:43:42;;;;;;;3.30;1.70;;;23.40;59.20;;;;;;5053655;28;20250;-70
2023/09/02 07:46:10;;;;;;;2.10;1.90;;;23.40;59.20;;;;;;5053861;28;20210;-70
2023/09/02 07:48:36;;;;;;;1.90;1.40;;;23.40;59.20;;;;;;5053872;28;20195;-70
2023/09/02 07:51:02;;;;;;;2.10;1.73;;;23.40;59.20;;;;;;5053864;28;20467;-70
2023/09/02 07:53:28;;;;;;;1.40;1.30;;;23.40;59.20;;;;;;5053762;28;20167;-70
2023/09/02 07:55:54;;;;;;;4.57;2.00;;;23.40;59.20;;;;;;5053950;28;20222;-69
2023/09/02 07:58:20;;;;;;;2.30;2.07;;;23.40;59.20;;;;;;5053423;28;20941;-71
2023/09/02 08:00:45;;;;;;;2.17;1.97;;;23.40;59.50;;;;;;5034797;28;20577;-71
2023/09/02 08:03:11;;;;;;;2.40;2.00;;;23.40;59.30;;;;;;5053691;28;20182;-70
2023/09/02 08:05:39;;;;;;;1.67;1.47;;;23.40;59.40;;;;;;5053505;28;20174;-69
2023/09/02 08:08:05;;;;;;;1.60;1.50;;;23.40;59.30;;;;;;5053506;28;20205;-70
2023/09/02 08:10:31;;;;;;;1.77;1.23;;;23.40;59.40;;;;;;5053813;28;20409;-70
2023/09/02 08:12:56;;;;;;;1.87;1.20;;;23.40;59.40;;;;;;5053542;28;20484;-70
2023/09/02 08:15:24;;;;;;;1.87;1.40;;;23.40;59.30;;;;;;5053502;28;20210;-70
2023/09/02 08:17:49;;;;;;;2.23;1.53;;;23.40;59.30;;;;;;5053424;28;20179;-70
2023/09/02 08:20:15;;;;;;;1.90;1.70;;;23.40;59.30;;;;;;5053139;28;20414;-71
2023/09/02 08:22:42;;;;;;;3.00;1.90;;;23.40;59.30;;;;;;5053488;28;20198;-70
2023/09/02 08:25:09;;;;;;;1.97;1.73;;;23.40;59.30;;;;;;5053222;28;20174;-70
2023/09/02 08:27:34;;;;;;;2.47;1.40;;;23.40;59.30;;;;;;5052940;28;20817;-69
2023/09/02 08:30:02;;;;;;;1.90;1.70;;;23.40;59.30;;;;;;5035013;28;20491;-70
2023/09/02 08:32:34;;;;;;;2.50;1.60;;;23.40;59.40;;;;;;5053348;28;20506;-69
2023/09/02 08:34:59;;;;;;;2.00;1.80;;;23.40;59.40;;;;;;5052996;28;20504;-70
2023/09/02 08:37:25;;;;;;;1.80;1.70;;;23.40;59.40;;;;;;5053133;28;20938;-70
2023/09/02 08:39:53;;;;;;;1.87;1.70;;;23.40;59.40;;;;;;5052990;28;20174;-70
2023/09/02 08:42:19;;;;;;;2.07;1.87;;;23.40;59.50;;;;;;5052266;28;20167;-71
2023/09/02 08:44:49;;;;;;;2.33;1.90;;;23.40;59.50;;;;;;5052576;28;20412;-70
2023/09/02 08:47:19;;;;;;;1.83;1.60;;;23.40;59.40;;;;;;5053002;28;20855;-70
2023/09/02 08:49:45;;;;;;;2.20;1.80;;;23.40;59.40;;;;;;5052761;28;20425;-70
2023/09/02 08:52:14;;;;;;;2.47;1.83;;;23.40;59.40;;;;;;5052761;28;20405;-69
2023/09/02 08:54:41;;;;;;;2.20;2.00;;;23.30;59.40;;;;;;5052622;28;20398;-70
2023/09/02 08:57:07;;;;;;;3.43;2.77;;;23.30;59.50;;;;;;5052524;28;20417;-70
2023/09/02 08:59:33;;;;;;;6.37;4.13;;;23.40;59.50;;;;;;5052570;28;20906;-70
2023/09/02 09:01:59;;;;;;;14.13;10.50;;;23.40;59.50;;;;;;5052604;28;20400;-70
2023/09/02 09:04:29;;;;;;;10.77;7.60;;;23.40;59.70;;;;;;5052517;28;20171;-69
2023/09/02 09:06:55;;;;;;;7.10;6.40;;;23.30;59.50;;;;;;5052439;28;20417;-70
2023/09/02 09:09:22;;;;;;;8.63;7.10;;;23.30;59.50;;;;;;5034485;28;20515;-70
2023/09/02 09:11:50;;;;;;;11.43;9.20;;;23.30;59.60;;;;;;5052342;28;20185;-71
2023/09/02 09:14:22;;;;;;;11.50;7.80;;;23.30;59.60;;;;;;5052499;28;20413;-70
2023/09/02 09:16:51;;;;;;;9.10;8.20;;;23.30;59.60;;;;;;5052248;28;20496;-69
2023/09/02 09:19:18;;;;;;;10.00;7.90;;;23.30;59.60;;;;;;5052196;28;20473;-69
2023/09/02 09:21:46;;;;;;;9.40;7.80;;;23.30;59.60;;;;;;5051936;28;20425;-70
2023/09/02 09:24:12;;;;;;;10.27;8.10;;;23.30;59.60;;;;;;5052763;28;20409;-70
2023/09/02 09:26:40;;;;;;;8.57;7.70;;;23.30;59.70;;;;;;5052431;28;20469;-70
2023/09/02 09:29:14;;;;;;;10.63;7.60;;;23.30;59.70;;;;;;5052567;28;20475;-69
2023/09/02 09:31:39;;;;;;;11.00;7.90;;;23.30;59.60;;;;;;5052769;28;20398;-70
2023/09/02 09:34:06;;;;;;;8.60;7.50;;;23.30;59.60;;;;;;5052376;28;20417;-70
2023/09/02 09:36:32;;;;;;;9.20;6.83;;;23.30;59.70;;;;;;5052600;28;21047;-68
2023/09/02 09:39:00;;;;;;;7.30;6.60;;;23.30;59.60;;;;;;5052710;28;20468;-70
2023/09/02 09:41:27;;;;;;;9.40;6.50;;;23.30;59.70;;;;;;5051854;28;20500;-70
2023/09/02 09:44:06;;;;;;;6.43;5.80;;;23.30;59.80;;;;;;5052876;28;21077;-69
2023/09/02 09:46:46;;;;;;;7.40;6.13;;;23.30;59.70;;;;;;5034448;28;20449;-68
2023/09/02 09:49:25;;;;;;;6.63;6.00;;;23.30;59.70;;;;;;5036238;28;20463;-70
2023/09/02 09:52:00;;;;;;;7.57;5.67;;;23.30;59.70;;;;;;5033539;28;20490;-70
2023/09/02 09:54:50;;;;;;;7.07;6.37;;;23.30;59.80;;;;;;5051438;28;21058;-69
2023/09/02 09:57:29;;;;;;;6.37;5.67;;;23.30;59.70;;;;;;5042370;28;20440;-71
2023/09/02 09:59:55;;;;;;;6.20;5.57;;;23.30;59.80;;;;;;5047998;28;20754;-71
2023/09/02 10:02:22;;;;;;;6.23;5.63;;;23.30;59.80;;;;;;5050901;28;20452;-73
2023/09/02 10:04:55;;;;;;;7.20;5.20;;;23.30;59.70;;;;;;5050849;28;20410;-69
2023/09/02 10:07:25;;;;;;;8.10;5.60;;;23.30;59.70;;;;;;5049177;28;20778;-70
2023/09/02 10:09:56;;;;;;;5.77;4.80;;;23.30;59.70;;;;;;5051181;28;20398;-68
2023/09/02 10:12:22;;;;;;;5.90;5.30;;;23.30;59.70;;;;;;5051111;28;20394;-69
2023/09/02 10:14:49;;;;;;;5.30;4.50;;;23.30;60.40;;;;;;5051094;28;20769;-69
2023/09/02 10:17:16;;;;;;;4.87;4.23;;;23.30;59.70;;;;;;5051000;28;20531;-69
2023/09/02 10:19:43;;;;;;;5.13;4.63;;;23.30;59.70;;;;;;5050959;28;20437;-68
2023/09/02 10:22:18;;;;;;;6.33;4.90;;;23.30;59.70;;;;;;5050668;28;20414;-70
2023/09/02 10:24:54;;;;;;;5.63;5.03;;;23.30;59.60;;;;;;5050837;28;20401;-69
2023/09/02 10:27:24;;;;;;;7.93;5.13;;;23.30;59.60;;;;;;5048665;28;20449;-69
2023/09/02 10:29:58;;;;;;;5.93;5.33;;;23.40;59.70;;;;;;5050731;28;20513;-68
2023/09/02 10:32:28;;;;;;;5.43;4.93;;;23.40;59.70;;;;;;5050439;28;20438;-66
2023/09/02 10:35:16;;;;;;;5.00;4.40;;;23.40;59.70;;;;;;5033395;28;20422;-69
2023/09/02 10:37:54;;;;;;;4.60;3.90;;;23.40;59.60;;;;;;5031018;28;20434;-69
2023/09/02 10:40:24;;;;;;;4.87;4.37;;;23.40;59.70;;;;;;5048543;28;20494;-68
2023/09/02 10:42:51;;;;;;;4.70;4.20;;;23.40;59.60;;;;;;5050658;28;20413;-68
2023/09/02 10:45:18;;;;;;;4.57;4.17;;;23.40;59.70;;;;;;5050774;28;20893;-67
2023/09/02 10:47:44;;;;;;;5.23;4.10;;;23.40;59.70;;;;;;5032426;28;20453;-71
2023/09/02 10:50:11;;;;;;;5.30;4.37;;;23.40;59.60;;;;;;5032769;28;20418;-69
2023/09/02 10:52:36;;;;;;;5.10;4.00;;;23.40;59.70;;;;;;5051333;28;20406;-69
2023/09/02 10:55:03;;;;;;;4.90;3.23;;;23.40;59.70;;;;;;5055057;28;20414;-68
2023/09/02 10:57:30;;;;;;;5.40;3.40;;;23.40;59.70;;;;;;5054209;28;20213;-68
2023/09/02 11:00:15;;;;;;;4.70;3.20;;;23.40;59.70;;;;;;5053471;28;20416;-68
2023/09/02 11:02:42;;;;;;;3.70;3.10;;;23.40;59.60;;;;;;5052978;28;20452;-68
2023/09/02 11:05:08;;;;;;;3.67;2.70;;;23.40;59.80;;;;;;5054490;28;20412;-67
2023/09/02 11:07:35;;;;;;;3.17;2.87;;;23.40;59.80;;;;;;5054569;28;20424;-68
2023/09/02 11:10:01;;;;;;;3.50;3.20;;;23.40;59.80;;;;;;5054516;28;20413;-67
2023/09/02 11:12:27;;;;;;;3.70;3.20;;;23.40;59.80;;;;;;5054533;28;20463;-71
2023/09/02 11:15:08;;;;;;;3.20;3.00;;;23.40;59.80;;;;;;5036304;28;21219;-68
2023/09/02 11:17:35;;;;;;;3.77;2.60;;;23.40;59.70;;;;;;5054214;28;20436;-70
2023/09/02 11:20:06;;;;;;;3.10;2.50;;;23.40;59.70;;;;;;5054173;28;20410;-69
2023/09/02 11:22:47;;;;;;;3.40;2.90;;;23.40;59.70;;;;;;5054263;28;20782;-70
2023/09/02 11:25:31;;;;;;;3.60;3.03;;;23.50;59.60;;;;;;5036204;28;20417;-69
2023/09/02 11:28:02;;;;;;;3.63;2.50;;;23.50;59.60;;;;;;5054475;28;20465;-69
2023/09/02 11:30:30;;;;;;;2.87;2.67;;;23.50;59.60;;;;;;5019641;28;20464;-69
2023/09/02 11:32:56;;;;;;;2.33;2.13;;;23.50;59.50;;;;;;5053946;28;20405;-70
2023/09/02 11:35:32;;;;;;;3.83;3.00;;;23.50;59.50;;;;;;5053376;28;20413;-70
2023/09/02 11:37:58;;;;;;;2.43;2.23;;;23.50;59.50;;;;;;5053820;28;20442;-69
2023/09/02 11:40:26;;;;;;;4.40;2.23;;;23.50;59.40;;;;;;5053985;28;20445;-69
2023/09/02 11:42:53;;;;;;;1.90;1.77;;;23.50;59.50;;;;;;5053840;28;20995;-70
2023/09/02 11:45:19;;;;;;;2.80;2.50;;;23.50;59.50;;;;;;5053536;28;20409;-69
2023/09/02 11:47:47;;;;;;;3.23;2.90;;;23.50;59.50;;;;;;5053661;28;20468;-70
2023/09/02 11:50:15;;;;;;;3.37;2.60;;;23.50;59.40;;;;;;5036197;28;20448;-69
2023/09/02 11:52:41;;;;;;;2.80;2.50;;;23.50;59.40;;;;;;5053759;28;20466;-70
2023/09/02 11:55:12;;;;;;;2.70;2.50;;;23.50;59.40;;;;;;5053881;28;20448;-70
2023/09/02 11:57:37;;;;;;;3.30;3.00;;;23.50;59.30;;;;;;5053792;28;20428;-71
2023/09/02 12:00:03;;;;;;;3.43;3.13;;;23.50;59.40;;;;;;5053840;28;20890;-70
2023/09/02 12:02:29;;;;;;;2.47;2.10;;;23.50;59.50;;;;;;5036082;28;20179;-69
2023/09/02 12:04:55;;;;;;;2.40;2.17;;;23.50;59.40;;;;;;5053013;28;20402;-71
2023/09/02 12:07:21;;;;;;;4.97;2.43;;;23.50;59.40;;;;;;5053871;28;20195;-70
2023/09/02 12:09:47;;;;;;;3.13;2.77;;;23.50;59.40;;;;;;5052697;28;20902;-70
2023/09/02 12:12:15;;;;;;;2.73;2.53;;;23.50;59.40;;;;;;5053595;28;20406;-70
2023/09/02 12:14:41;;;;;;;2.97;2.47;;;23.50;59.40;;;;;;5053528;28;20488;-69
2023/09/02 12:17:07;;;;;;;2.87;2.47;;;23.50;59.30;;;;;;5053371;28;20861;-71
2023/09/02 12:19:34;;;;;;;2.20;2.00;;;23.50;59.40;;;;;;5053445;28;20409;-68
2023/09/02 12:22:00;;;;;;;2.50;2.30;;;23.50;59.40;;;;;;5053397;28;20420;-70
2023/09/02 12:24:27;;;;;;;2.17;1.97;;;23.50;59.30;;;;;;5053359;28;20816;-69
2023/09/02 12:26:52;;;;;;;7.13;2.73;;;23.50;59.30;;;;;;5053260;28;20199;-68
2023/09/02 12:29:19;;;;;;;2.30;1.90;;;23.50;59.20;;;;;;5053247;28;20471;-68
2023/09/02 12:31:55;;;;;;;2.77;2.40;;;23.50;59.30;;;;;;5053217;28;20167;-69
2023/09/02 12:34:25;;;;;;;2.93;2.00;;;23.60;59.30;;;;;;5053417;28;20413;-68
2023/09/02 12:36:50;;;;;;;2.57;2.37;;;23.50;59.30;;;;;;5052880;28;20425;-69
2023/09/02 12:39:27;;;;;;;2.63;2.10;;;23.50;59.30;;;;;;5035208;28;20477;-68
2023/09/02 12:41:53;;;;;;;2.80;2.47;;;23.50;59.20;;;;;;5053147;28;20155;-68
2023/09/02 12:44:19;;;;;;;2.30;2.10;;;23.50;59.30;;;;;;5053294;28;20409;-69
2023/09/02 12:46:49;;;;;;;3.43;2.20;;;23.50;59.30;;;;;;5052966;28;20499;-68